createdAt,value
2018-05-25T00:00:10.928Z,0
2018-05-25T00:01:11.167Z,0
2018-05-25T00:02:11.163Z,0
2018-05-25T00:03:11.155Z,0
2018-05-25T00:04:10.628Z,0
2018-05-25T00:05:11.140Z,0
2018-05-25T00:06:11.131Z,0
2018-05-25T00:07:10.638Z,0
2018-05-25T00:08:11.139Z,0
2018-05-25T00:09:10.865Z,0
2018-05-25T00:10:10.588Z,0
2018-05-25T00:11:11.123Z,0
2018-05-25T00:12:11.062Z,0
2018-05-25T00:13:10.846Z,0
2018-05-25T00:14:11.087Z,0
2018-05-25T00:15:11.684Z,0
2018-05-25T00:16:11.056Z,0
2018-05-25T00:17:10.539Z,0
2018-05-25T00:18:10.805Z,0
2018-05-25T00:19:10.535Z,0
2018-05-25T00:20:10.778Z,0
2018-05-25T00:21:10.776Z,0
2018-05-25T00:22:11.003Z,0
2018-05-25T00:23:11.032Z,0
2018-05-25T00:24:10.754Z,0
2018-05-25T00:25:11.018Z,0
2018-05-25T00:26:10.733Z,0
2018-05-25T00:27:10.991Z,0
2018-05-25T00:28:10.735Z,0
2018-05-25T00:29:10.727Z,0
2018-05-25T00:30:10.454Z,0
2018-05-25T00:31:10.706Z,0
2018-05-25T00:32:10.964Z,0
2018-05-25T00:33:10.449Z,0
2018-05-25T00:34:10.950Z,0
2018-05-25T00:35:10.678Z,0
2018-05-25T00:36:10.666Z,0
2018-05-25T00:37:10.401Z,0
2018-05-25T00:38:10.401Z,0
2018-05-25T00:39:10.411Z,0
2018-05-25T00:40:10.901Z,0
2018-05-25T00:41:10.633Z,0
2018-05-25T00:42:10.623Z,0
2018-05-25T00:43:10.883Z,0
2018-05-25T00:44:10.621Z,0
2018-05-25T00:45:10.355Z,0
2018-05-25T00:46:10.625Z,0
2018-05-25T00:47:10.596Z,0
2018-05-25T00:48:10.849Z,0
2018-05-25T00:49:10.845Z,0
2018-05-25T00:50:10.619Z,0
2018-05-25T00:51:10.051Z,0
2018-05-25T00:52:10.563Z,0
2018-05-25T00:53:10.564Z,0
2018-05-25T00:54:10.034Z,0
2018-05-25T00:55:10.546Z,0
2018-05-25T00:56:10.774Z,0
2018-05-25T00:57:10.810Z,0
2018-05-25T00:58:10.790Z,0
2018-05-25T00:59:10.517Z,0
2018-05-25T01:00:10.520Z,0
2018-05-25T01:01:10.788Z,0
2018-05-25T01:02:10.511Z,0
2018-05-25T01:03:10.493Z,0
2018-05-25T01:04:10.743Z,0
2018-05-25T01:05:10.501Z,0
2018-05-25T01:06:10.486Z,0
2018-05-25T01:07:10.223Z,0
2018-05-25T01:08:10.480Z,0
2018-05-25T01:09:10.190Z,0
2018-05-25T01:10:10.177Z,0
2018-05-25T01:11:09.920Z,0
2018-05-25T01:12:10.692Z,0
2018-05-25T01:13:10.686Z,0
2018-05-25T01:14:10.424Z,0
2018-05-25T01:15:10.382Z,0
2018-05-25T01:16:10.656Z,0
2018-05-25T01:17:09.875Z,0
2018-05-25T01:18:11.254Z,0
2018-05-25T01:19:10.634Z,0
2018-05-25T01:20:10.390Z,0
2018-05-25T01:21:10.105Z,0
2018-05-25T01:22:10.638Z,0
2018-05-25T01:23:10.344Z,0
2018-05-25T01:24:10.602Z,0
2018-05-25T01:25:10.391Z,0
2018-05-25T01:26:10.330Z,0
2018-05-25T01:27:10.527Z,0
2018-05-25T01:28:10.060Z,0
2018-05-25T01:29:10.311Z,0
2018-05-25T01:30:10.582Z,0
2018-05-25T01:31:10.305Z,0
2018-05-25T01:32:10.294Z,0
2018-05-25T01:33:10.066Z,0
2018-05-25T01:34:10.531Z,0
2018-05-25T01:35:10.274Z,0
2018-05-25T01:36:10.263Z,0
2018-05-25T01:37:10.259Z,0
2018-05-25T01:38:09.988Z,0
2018-05-25T01:39:10.245Z,0
2018-05-25T01:40:09.721Z,0
2018-05-25T01:41:09.969Z,0
2018-05-25T01:42:09.967Z,0
2018-05-25T01:43:09.961Z,0
2018-05-25T01:44:09.956Z,0
2018-05-25T01:45:10.481Z,0
2018-05-25T01:46:10.450Z,0
2018-05-25T01:47:10.193Z,0
2018-05-25T01:48:10.183Z,0
2018-05-25T01:49:10.169Z,0
2018-05-25T01:50:10.429Z,0
2018-05-25T01:51:10.639Z,0
2018-05-25T01:52:10.410Z,0
2018-05-25T01:53:10.157Z,0
2018-05-25T01:54:10.411Z,0
2018-05-25T01:55:10.144Z,0
2018-05-25T01:56:10.408Z,0
2018-05-25T01:57:09.865Z,0
2018-05-25T01:58:10.150Z,0
2018-05-25T01:59:10.105Z,0
2018-05-25T02:00:09.843Z,0
2018-05-25T02:01:10.352Z,0
2018-05-25T02:02:10.093Z,0
2018-05-25T02:03:10.339Z,0
2018-05-25T02:04:10.075Z,0
2018-05-25T02:05:10.345Z,0
2018-05-25T02:06:10.331Z,0
2018-05-25T02:07:10.054Z,0
2018-05-25T02:08:10.081Z,0
2018-05-25T02:09:10.049Z,0
2018-05-25T02:10:09.778Z,0
2018-05-25T02:11:10.413Z,0
2018-05-25T02:12:10.031Z,0
2018-05-25T02:13:10.019Z,0
2018-05-25T02:14:10.007Z,0
2018-05-25T02:15:09.758Z,0
2018-05-25T02:16:09.478Z,0
2018-05-25T02:17:10.469Z,0
2018-05-25T02:18:10.261Z,0
2018-05-25T02:19:09.990Z,0
2018-05-25T02:20:09.991Z,0
2018-05-25T02:21:09.442Z,0
2018-05-25T02:22:10.215Z,0
2018-05-25T02:23:09.431Z,0
2018-05-25T02:24:09.940Z,0
2018-05-25T02:25:09.677Z,0
2018-05-25T02:26:09.937Z,0
2018-05-25T02:27:10.185Z,0
2018-05-25T02:28:09.653Z,0
2018-05-25T02:29:09.967Z,0
2018-05-25T02:30:09.911Z,0
2018-05-25T02:31:09.923Z,0
2018-05-25T02:32:09.637Z,0
2018-05-25T02:33:09.896Z,0
2018-05-25T02:34:10.150Z,0
2018-05-25T02:35:09.873Z,0
2018-05-25T02:36:10.124Z,0
2018-05-25T02:37:10.113Z,0
2018-05-25T02:38:09.845Z,0
2018-05-25T02:39:09.841Z,0
2018-05-25T02:40:09.852Z,0
2018-05-25T02:41:10.032Z,0
2018-05-25T02:42:10.110Z,0
2018-05-25T02:43:09.562Z,0
2018-05-25T02:44:09.808Z,0
2018-05-25T02:45:10.017Z,4
2018-05-25T02:46:10.054Z,4
2018-05-25T02:47:09.553Z,0
2018-05-25T02:48:10.006Z,0
2018-05-25T02:49:09.790Z,4
2018-05-25T02:50:09.511Z,4
2018-05-25T02:51:09.498Z,0
2018-05-25T02:52:09.760Z,4
2018-05-25T02:53:09.751Z,4
2018-05-25T02:54:09.749Z,4
2018-05-25T02:55:09.481Z,4
2018-05-25T02:56:09.748Z,8
2018-05-25T02:57:09.736Z,8
2018-05-25T02:58:09.468Z,8
2018-05-25T02:59:09.451Z,12
2018-05-25T03:00:09.442Z,12
2018-05-25T03:01:09.699Z,16
2018-05-25T03:02:09.724Z,16
2018-05-25T03:03:09.680Z,16
2018-05-25T03:04:09.941Z,24
2018-05-25T03:05:09.412Z,24
2018-05-25T03:06:09.667Z,28
2018-05-25T03:07:09.929Z,32
2018-05-25T03:08:09.675Z,40
2018-05-25T03:09:09.921Z,44
2018-05-25T03:10:09.917Z,52
2018-05-25T03:11:09.921Z,64
2018-05-25T03:12:09.632Z,72
2018-05-25T03:13:09.638Z,80
2018-05-25T03:14:09.095Z,80
2018-05-25T03:15:09.348Z,92
2018-05-25T03:16:09.607Z,112
2018-05-25T03:17:10.106Z,136
2018-05-25T03:18:09.563Z,148
2018-05-25T03:19:09.830Z,156
2018-05-25T03:20:09.569Z,160
2018-05-25T03:21:09.837Z,172
2018-05-25T03:22:09.591Z,188
2018-05-25T03:23:09.559Z,204
2018-05-25T03:24:09.556Z,208
2018-05-25T03:25:09.533Z,204
2018-05-25T03:26:09.671Z,208
2018-05-25T03:27:09.523Z,220
2018-05-25T03:28:09.536Z,236
2018-05-25T03:29:09.527Z,252
2018-05-25T03:30:09.254Z,268
2018-05-25T03:31:09.779Z,280
2018-05-25T03:32:09.765Z,292
2018-05-25T03:33:09.518Z,312
2018-05-25T03:34:09.217Z,328
2018-05-25T03:35:09.214Z,340
2018-05-25T03:36:09.225Z,360
2018-05-25T03:37:09.463Z,376
2018-05-25T03:38:09.725Z,392
2018-05-25T03:39:09.511Z,408
2018-05-25T03:40:09.445Z,428
2018-05-25T03:41:08.911Z,444
2018-05-25T03:42:09.176Z,464
2018-05-25T03:43:09.703Z,500
2018-05-25T03:44:09.409Z,540
2018-05-25T03:45:09.663Z,572
2018-05-25T03:46:09.142Z,592
2018-05-25T03:47:09.391Z,604
2018-05-25T03:48:09.432Z,608
2018-05-25T03:49:09.643Z,608
2018-05-25T03:50:09.659Z,604
2018-05-25T03:51:09.629Z,632
2018-05-25T03:52:09.628Z,664
2018-05-25T03:53:09.371Z,688
2018-05-25T03:54:09.623Z,716
2018-05-25T03:55:09.099Z,732
2018-05-25T03:56:09.329Z,748
2018-05-25T03:57:09.323Z,744
2018-05-25T03:58:09.315Z,740
2018-05-25T03:59:09.578Z,728
2018-05-25T04:00:09.587Z,728
2018-05-25T04:01:09.321Z,728
2018-05-25T04:02:09.301Z,720
2018-05-25T04:03:09.552Z,716
2018-05-25T04:04:09.565Z,720
2018-05-25T04:05:09.276Z,716
2018-05-25T04:06:09.563Z,724
2018-05-25T04:07:09.013Z,728
2018-05-25T04:08:09.254Z,740
2018-05-25T04:09:09.267Z,752
2018-05-25T04:10:09.507Z,772
2018-05-25T04:11:09.507Z,792
2018-05-25T04:12:08.976Z,808
2018-05-25T04:13:09.482Z,820
2018-05-25T04:14:09.217Z,828
2018-05-25T04:15:09.213Z,836
2018-05-25T04:16:09.468Z,840
2018-05-25T04:17:09.241Z,840
2018-05-25T04:18:09.197Z,852
2018-05-25T04:19:08.667Z,856
2018-05-25T04:20:09.438Z,864
2018-05-25T04:21:08.937Z,876
2018-05-25T04:22:09.391Z,896
2018-05-25T04:23:08.905Z,908
2018-05-25T04:24:09.385Z,924
2018-05-25T04:25:08.647Z,932
2018-05-25T04:26:09.409Z,936
2018-05-25T04:27:09.137Z,940
2018-05-25T04:28:09.409Z,940
2018-05-25T04:29:09.336Z,944
2018-05-25T04:30:08.850Z,952
2018-05-25T04:31:09.365Z,968
2018-05-25T04:32:09.096Z,988
2018-05-25T04:33:09.375Z,1012
2018-05-25T04:34:09.101Z,1040
2018-05-25T04:35:08.832Z,1068
2018-05-25T04:36:09.084Z,1104
2018-05-25T04:37:09.333Z,1140
2018-05-25T04:38:09.327Z,1172
2018-05-25T04:39:08.537Z,1208
2018-05-25T04:40:09.312Z,1240
2018-05-25T04:41:08.804Z,1264
2018-05-25T04:42:09.055Z,1292
2018-05-25T04:43:08.774Z,1320
2018-05-25T04:44:09.030Z,1356
2018-05-25T04:45:09.025Z,1404
2018-05-25T04:46:09.013Z,1452
2018-05-25T04:47:08.488Z,1496
2018-05-25T04:48:09.039Z,1548
2018-05-25T04:49:08.998Z,1592
2018-05-25T04:50:09.253Z,1632
2018-05-25T04:51:08.981Z,1668
2018-05-25T04:52:08.719Z,1716
2018-05-25T04:53:08.975Z,1772
2018-05-25T04:54:08.963Z,1836
2018-05-25T04:55:08.695Z,1904
2018-05-25T04:56:08.952Z,1976
2018-05-25T04:57:08.998Z,2044
2018-05-25T04:58:08.679Z,2112
2018-05-25T04:59:09.187Z,2164
2018-05-25T05:00:08.960Z,2224
2018-05-25T05:01:08.929Z,2296
2018-05-25T05:02:08.697Z,2380
2018-05-25T05:03:08.913Z,2484
2018-05-25T05:04:08.644Z,2596
2018-05-25T05:05:09.195Z,2708
2018-05-25T05:06:08.896Z,2812
2018-05-25T05:07:08.890Z,2920
2018-05-25T05:08:08.619Z,3032
2018-05-25T05:09:09.166Z,3132
2018-05-25T05:10:09.137Z,3236
2018-05-25T05:11:08.604Z,3348
2018-05-25T05:12:08.870Z,3528
2018-05-25T05:13:09.073Z,3736
2018-05-25T05:14:08.841Z,3976
2018-05-25T05:15:08.844Z,4216
2018-05-25T05:16:08.572Z,4416
2018-05-25T05:17:08.562Z,4484
2018-05-25T05:18:08.556Z,4480
2018-05-25T05:19:08.828Z,4444
2018-05-25T05:20:08.809Z,4376
2018-05-25T05:21:08.540Z,4288
2018-05-25T05:22:08.793Z,4240
2018-05-25T05:23:08.645Z,4264
2018-05-25T05:24:08.525Z,4340
2018-05-25T05:25:08.774Z,4532
2018-05-25T05:26:08.765Z,4796
2018-05-25T05:27:08.788Z,5144
2018-05-25T05:28:08.765Z,5416
2018-05-25T05:29:09.227Z,5552
2018-05-25T05:30:09.006Z,5664
2018-05-25T05:31:09.006Z,5940
2018-05-25T05:32:08.748Z,6276
2018-05-25T05:33:08.472Z,6404
2018-05-25T05:34:08.747Z,6388
2018-05-25T05:35:09.007Z,6436
2018-05-25T05:36:08.984Z,6448
2018-05-25T05:37:08.716Z,6448
2018-05-25T05:38:08.705Z,6808
2018-05-25T05:39:08.709Z,7524
2018-05-25T05:40:08.961Z,7976
2018-05-25T05:41:08.980Z,8140
2018-05-25T05:42:08.699Z,8044
2018-05-25T05:43:08.162Z,8128
2018-05-25T05:44:08.176Z,8536
2018-05-25T05:45:08.415Z,9084
2018-05-25T05:46:08.669Z,9540
2018-05-25T05:47:08.938Z,9540
2018-05-25T05:48:08.929Z,9648
2018-05-25T05:49:08.651Z,9956
2018-05-25T05:50:08.909Z,10176
2018-05-25T05:51:08.639Z,10256
2018-05-25T05:52:08.644Z,10148
2018-05-25T05:53:08.374Z,10192
2018-05-25T05:54:08.627Z,10564
2018-05-25T05:55:08.887Z,10868
2018-05-25T05:56:08.876Z,10512
2018-05-25T05:57:08.627Z,10012
2018-05-25T05:58:08.623Z,9824
2018-05-25T05:59:08.346Z,10184
2018-05-25T06:00:08.614Z,10072
2018-05-25T06:01:08.593Z,9260
2018-05-25T06:02:08.857Z,8476
2018-05-25T06:03:08.327Z,7756
2018-05-25T06:04:08.870Z,6816
2018-05-25T06:05:08.329Z,6088
2018-05-25T06:06:08.325Z,5480
2018-05-25T06:07:08.594Z,4788
2018-05-25T06:08:08.586Z,3984
2018-05-25T06:09:08.308Z,3316
2018-05-25T06:10:08.782Z,2780
2018-05-25T06:11:08.841Z,2484
2018-05-25T06:12:08.825Z,2272
2018-05-25T06:13:08.558Z,2076
2018-05-25T06:14:08.552Z,1948
2018-05-25T06:15:08.545Z,1884
2018-05-25T06:16:08.536Z,1780
2018-05-25T06:17:08.560Z,1664
2018-05-25T06:18:08.533Z,1592
2018-05-25T06:19:08.784Z,1536
2018-05-25T06:20:09.077Z,1552
2018-05-25T06:21:08.523Z,1576
2018-05-25T06:22:08.801Z,1676
2018-05-25T06:23:08.513Z,1836
2018-05-25T06:24:07.995Z,2008
2018-05-25T06:25:08.763Z,2128
2018-05-25T06:26:08.774Z,2180
2018-05-25T06:27:08.501Z,2244
2018-05-25T06:28:07.975Z,2260
2018-05-25T06:29:08.488Z,2268
2018-05-25T06:30:08.489Z,2264
2018-05-25T06:31:08.487Z,2240
2018-05-25T06:32:08.213Z,2248
2018-05-25T06:33:08.230Z,2328
2018-05-25T06:34:08.210Z,2376
2018-05-25T06:35:08.461Z,2456
2018-05-25T06:36:08.468Z,2648
2018-05-25T06:37:08.461Z,2876
2018-05-25T06:38:08.452Z,3116
2018-05-25T06:39:08.451Z,3316
2018-05-25T06:40:08.445Z,3384
2018-05-25T06:41:08.429Z,3288
2018-05-25T06:42:08.441Z,3168
2018-05-25T06:43:08.430Z,3216
2018-05-25T06:44:08.710Z,3236
2018-05-25T06:45:08.164Z,3252
2018-05-25T06:46:07.913Z,3276
2018-05-25T06:47:08.158Z,3364
2018-05-25T06:48:08.662Z,3464
2018-05-25T06:49:08.151Z,3620
2018-05-25T06:50:08.403Z,3764
2018-05-25T06:51:08.398Z,3864
2018-05-25T06:52:08.408Z,3840
2018-05-25T06:53:08.149Z,3764
2018-05-25T06:54:08.656Z,3608
2018-05-25T06:55:08.375Z,3484
2018-05-25T06:56:08.373Z,3416
2018-05-25T06:57:08.376Z,3312
2018-05-25T06:58:08.121Z,3216
2018-05-25T06:59:08.343Z,3184
2018-05-25T07:00:08.578Z,3116
2018-05-25T07:01:08.349Z,3012
2018-05-25T07:02:08.085Z,2892
2018-05-25T07:03:08.103Z,2800
2018-05-25T07:04:08.491Z,2748
2018-05-25T07:05:08.599Z,2732
2018-05-25T07:06:08.082Z,2752
2018-05-25T07:07:08.323Z,2836
2018-05-25T07:08:08.335Z,2956
2018-05-25T07:09:08.568Z,3084
2018-05-25T07:10:08.311Z,3236
2018-05-25T07:11:08.050Z,3376
2018-05-25T07:12:08.560Z,3552
2018-05-25T07:13:08.049Z,3676
2018-05-25T07:14:08.313Z,3784
2018-05-25T07:15:08.573Z,3816
2018-05-25T07:16:08.034Z,3728
2018-05-25T07:17:08.403Z,3532
2018-05-25T07:18:08.276Z,3340
2018-05-25T07:19:08.013Z,3176
2018-05-25T07:20:08.003Z,3100
2018-05-25T07:21:08.223Z,3068
2018-05-25T07:22:08.481Z,3100
2018-05-25T07:23:08.253Z,3160
2018-05-25T07:24:08.255Z,3252
2018-05-25T07:25:08.530Z,3336
2018-05-25T07:26:08.502Z,3524
2018-05-25T07:27:07.983Z,3836
2018-05-25T07:28:08.504Z,4180
2018-05-25T07:29:08.226Z,4512
2018-05-25T07:30:08.222Z,4808
2018-05-25T07:31:08.224Z,4996
2018-05-25T07:32:08.225Z,5120
2018-05-25T07:33:40.065Z,5184
2018-05-25T07:34:08.213Z,5152
2018-05-25T07:35:08.201Z,5016
2018-05-25T07:36:08.463Z,4800
2018-05-25T07:37:08.670Z,4584
2018-05-25T07:38:08.441Z,4288
2018-05-25T07:39:08.454Z,4032
2018-05-25T07:40:08.201Z,3768
2018-05-25T07:41:08.436Z,3636
2018-05-25T07:42:08.430Z,3596
2018-05-25T07:43:08.163Z,3768
2018-05-25T07:44:08.164Z,4116
2018-05-25T07:45:08.431Z,4572
2018-05-25T07:46:08.418Z,5112
2018-05-25T07:47:07.897Z,5612
2018-05-25T07:48:08.146Z,6100
2018-05-25T07:49:07.883Z,6644
2018-05-25T07:50:08.429Z,7028
2018-05-25T07:51:08.756Z,7320
2018-05-25T07:52:08.571Z,7664
2018-05-25T07:53:08.314Z,8016
2018-05-25T07:54:08.166Z,8208
2018-05-25T07:55:09.215Z,8048
2018-05-25T07:56:08.115Z,7588
2018-05-25T07:57:08.129Z,7176
2018-05-25T07:58:07.590Z,6732
2018-05-25T07:59:08.597Z,6216
2018-05-25T08:00:08.102Z,5832
2018-05-25T08:01:07.836Z,5604
2018-05-25T08:02:07.828Z,5572
2018-05-25T08:03:08.361Z,5824
2018-05-25T08:04:08.082Z,6160
2018-05-25T08:05:08.340Z,6160
2018-05-25T08:06:07.820Z,5928
2018-05-25T08:07:08.330Z,5632
2018-05-25T08:08:08.327Z,5380
2018-05-25T08:09:08.270Z,5108
2018-05-25T08:10:07.836Z,4844
2018-05-25T08:11:08.099Z,4564
2018-05-25T08:12:07.867Z,4380
2018-05-25T08:13:08.317Z,4300
2018-05-25T08:14:08.310Z,4316
2018-05-25T08:15:08.035Z,4368
2018-05-25T08:16:08.040Z,4316
2018-05-25T08:17:08.313Z,4152
2018-05-25T08:18:08.041Z,4016
2018-05-25T08:19:08.285Z,3916
2018-05-25T08:20:08.065Z,3888
2018-05-25T08:21:08.103Z,3752
2018-05-25T08:22:08.492Z,3688
2018-05-25T08:23:08.040Z,3780
2018-05-25T08:24:08.020Z,3880
2018-05-25T08:25:08.000Z,3944
2018-05-25T08:26:08.000Z,3972
2018-05-25T08:27:08.001Z,3860
2018-05-25T08:28:08.254Z,3768
2018-05-25T08:29:07.997Z,3704
2018-05-25T08:30:07.991Z,3704
2018-05-25T08:31:08.264Z,3836
2018-05-25T08:32:08.286Z,3980
2018-05-25T08:33:08.237Z,4128
2018-05-25T08:34:08.230Z,4324
2018-05-25T08:35:08.230Z,4596
2018-05-25T08:36:07.713Z,4840
2018-05-25T08:37:07.977Z,4976
2018-05-25T08:38:07.701Z,5092
2018-05-25T08:39:07.953Z,5272
2018-05-25T08:40:07.957Z,5512
2018-05-25T08:41:08.202Z,5712
2018-05-25T08:42:07.941Z,5832
2018-05-25T08:43:07.426Z,5852
2018-05-25T08:44:07.954Z,5712
2018-05-25T08:45:07.688Z,5508
2018-05-25T08:46:07.923Z,5284
2018-05-25T08:47:07.922Z,5120
2018-05-25T08:48:08.179Z,5000
2018-05-25T08:49:07.657Z,4896
2018-05-25T08:50:08.174Z,4844
2018-05-25T08:51:08.168Z,4812
2018-05-25T08:52:07.906Z,4804
2018-05-25T08:53:07.912Z,4828
2018-05-25T08:54:07.903Z,4908
2018-05-25T08:55:08.029Z,5100
2018-05-25T08:56:07.634Z,5396
2018-05-25T08:57:07.906Z,5744
2018-05-25T08:58:07.907Z,6140
2018-05-25T08:59:08.141Z,6512
2018-05-25T09:00:08.138Z,6784
2018-05-25T09:01:08.092Z,6884
2018-05-25T09:02:08.131Z,6880
2018-05-25T09:03:08.129Z,6800
2018-05-25T09:04:08.129Z,6708
2018-05-25T09:05:07.343Z,6692
2018-05-25T09:06:08.136Z,6704
2018-05-25T09:07:07.861Z,6660
2018-05-25T09:08:08.121Z,6564
2018-05-25T09:09:08.118Z,6464
2018-05-25T09:10:08.106Z,6228
2018-05-25T09:11:07.848Z,5528
2018-05-25T09:12:07.845Z,4960
2018-05-25T09:13:07.838Z,4768
2018-05-25T09:14:07.827Z,4592
2018-05-25T09:15:08.088Z,4480
2018-05-25T09:16:07.565Z,4516
2018-05-25T09:17:07.570Z,4388
2018-05-25T09:18:08.076Z,4116
2018-05-25T09:19:08.117Z,3920
2018-05-25T09:20:07.820Z,3788
2018-05-25T09:21:08.030Z,3704
2018-05-25T09:22:07.807Z,3680
2018-05-25T09:23:07.803Z,3704
2018-05-25T09:24:07.812Z,3748
2018-05-25T09:25:08.031Z,3800
2018-05-25T09:26:07.535Z,3828
2018-05-25T09:27:08.069Z,3896
2018-05-25T09:28:07.786Z,4004
2018-05-25T09:29:08.039Z,4072
2018-05-25T09:30:07.263Z,4248
2018-05-25T09:31:08.086Z,4588
2018-05-25T09:32:07.778Z,5072
2018-05-25T09:33:07.770Z,5568
2018-05-25T09:34:07.765Z,5924
2018-05-25T09:35:07.518Z,6196
2018-05-25T09:36:08.034Z,6388
2018-05-25T09:37:08.009Z,6460
2018-05-25T09:38:07.753Z,6424
2018-05-25T09:39:07.776Z,6364
2018-05-25T09:40:07.968Z,6340
2018-05-25T09:41:07.995Z,6336
2018-05-25T09:42:07.830Z,6336
2018-05-25T09:43:07.740Z,6280
2018-05-25T09:44:08.046Z,6132
2018-05-25T09:45:07.731Z,5956
2018-05-25T09:46:07.982Z,5816
2018-05-25T09:47:07.464Z,5776
2018-05-25T09:48:07.976Z,5912
2018-05-25T09:49:07.710Z,6220
2018-05-25T09:50:07.453Z,6660
2018-05-25T09:51:07.972Z,7092
2018-05-25T09:52:07.703Z,7328
2018-05-25T09:53:07.705Z,7236
2018-05-25T09:54:07.955Z,6968
2018-05-25T09:55:07.696Z,6896
2018-05-25T09:56:08.060Z,7084
2018-05-25T09:57:07.737Z,7464
2018-05-25T09:58:07.425Z,7952
2018-05-25T09:59:07.684Z,8540
2018-05-25T10:00:07.429Z,8904
2018-05-25T10:01:07.677Z,8764
2018-05-25T10:02:07.941Z,8196
2018-05-25T10:03:07.684Z,7468
2018-05-25T10:04:07.403Z,6736
2018-05-25T10:05:07.421Z,6148
2018-05-25T10:06:07.404Z,5832
2018-05-25T10:07:07.163Z,5836
2018-05-25T10:08:07.909Z,6008
2018-05-25T10:09:08.123Z,6448
2018-05-25T10:10:07.654Z,7016
2018-05-25T10:11:07.645Z,7592
2018-05-25T10:12:07.650Z,8096
2018-05-25T10:13:07.641Z,8324
2018-05-25T10:14:07.637Z,8452
2018-05-25T10:15:07.633Z,8588
2018-05-25T10:16:07.633Z,8836
2018-05-25T10:17:07.645Z,9344
2018-05-25T10:18:07.370Z,10000
2018-05-25T10:19:07.366Z,10584
2018-05-25T10:20:07.887Z,11008
2018-05-25T10:21:07.646Z,11244
2018-05-25T10:22:07.614Z,11420
2018-05-25T10:23:07.354Z,11648
2018-05-25T10:24:07.350Z,11996
2018-05-25T10:25:07.614Z,12376
2018-05-25T10:26:07.860Z,12664
2018-05-25T10:27:07.623Z,12812
2018-05-25T10:28:07.860Z,12756
2018-05-25T10:29:07.337Z,12464
2018-05-25T10:30:07.857Z,12136
2018-05-25T10:31:07.338Z,11956
2018-05-25T10:32:07.330Z,11948
2018-05-25T10:33:07.868Z,11988
2018-05-25T10:34:07.610Z,12160
2018-05-25T10:35:07.094Z,12480
2018-05-25T10:36:07.866Z,12916
2018-05-25T10:37:07.303Z,13388
2018-05-25T10:38:07.322Z,13888
2018-05-25T10:39:07.837Z,14316
2018-05-25T10:40:07.575Z,14536
2018-05-25T10:41:07.798Z,14620
2018-05-25T10:42:07.059Z,14764
2018-05-25T10:43:07.570Z,15036
2018-05-25T10:44:07.839Z,15624
2018-05-25T10:45:07.832Z,16336
2018-05-25T10:46:07.838Z,17056
2018-05-25T10:47:07.837Z,17472
2018-05-25T10:48:07.330Z,17824
2018-05-25T10:49:07.844Z,18080
2018-05-25T10:50:07.305Z,18336
2018-05-25T10:51:07.308Z,18560
2018-05-25T10:52:07.054Z,18624
2018-05-25T10:53:07.828Z,18624
2018-05-25T10:54:07.824Z,18656
2018-05-25T10:55:07.324Z,18752
2018-05-25T10:56:07.926Z,18976
2018-05-25T10:57:07.824Z,19104
2018-05-25T10:58:07.305Z,19008
2018-05-25T10:59:07.560Z,18816
2018-05-25T11:00:07.840Z,18624
2018-05-25T11:01:07.302Z,18400
2018-05-25T11:02:07.559Z,18144
2018-05-25T11:03:07.823Z,18048
2018-05-25T11:04:07.835Z,18080
2018-05-25T11:05:07.303Z,18176
2018-05-25T11:06:07.833Z,18144
2018-05-25T11:07:07.822Z,18016
2018-05-25T11:08:07.571Z,17952
2018-05-25T11:09:07.567Z,17952
2018-05-25T11:10:07.409Z,18016
2018-05-25T11:11:07.568Z,18048
2018-05-25T11:12:07.580Z,17984
2018-05-25T11:13:07.832Z,17984
2018-05-25T11:14:07.824Z,17664
2018-05-25T11:15:07.587Z,17408
2018-05-25T11:16:07.312Z,17184
2018-05-25T11:17:07.823Z,17056
2018-05-25T11:18:07.582Z,16992
2018-05-25T11:19:07.564Z,16992
2018-05-25T11:20:07.570Z,17088
2018-05-25T11:21:07.686Z,17344
2018-05-25T11:22:07.575Z,17536
2018-05-25T11:23:07.572Z,17376
2018-05-25T11:24:07.584Z,17216
2018-05-25T11:25:07.322Z,17088
2018-05-25T11:26:07.525Z,16768
2018-05-25T11:27:07.740Z,16800
2018-05-25T11:28:07.545Z,16640
2018-05-25T11:29:07.321Z,16384
2018-05-25T11:30:07.839Z,15928
2018-05-25T11:31:07.341Z,15408
2018-05-25T11:32:07.587Z,14768
2018-05-25T11:33:07.331Z,14096
2018-05-25T11:34:07.326Z,13724
2018-05-25T11:35:07.600Z,13444
2018-05-25T11:36:07.859Z,13456
2018-05-25T11:37:07.595Z,13636
2018-05-25T11:38:07.334Z,13924
2018-05-25T11:39:07.611Z,13800
2018-05-25T11:40:07.611Z,13412
2018-05-25T11:41:07.593Z,13096
2018-05-25T11:42:07.885Z,12572
2018-05-25T11:43:07.601Z,12156
2018-05-25T11:44:07.600Z,12128
2018-05-25T11:45:07.337Z,12236
2018-05-25T11:46:07.603Z,12392
2018-05-25T11:47:07.628Z,12880
2018-05-25T11:48:07.869Z,13612
2018-05-25T11:49:07.861Z,14256
2018-05-25T11:50:08.278Z,14948
2018-05-25T11:51:07.869Z,14420
2018-05-25T11:52:07.869Z,14152
2018-05-25T11:53:07.710Z,14024
2018-05-25T11:54:07.634Z,13476
2018-05-25T11:55:07.620Z,13184
2018-05-25T11:56:07.355Z,12924
2018-05-25T11:57:07.357Z,12928
2018-05-25T11:58:08.138Z,13292
2018-05-25T11:59:07.369Z,12980
2018-05-25T12:00:07.883Z,12488
2018-05-25T12:01:07.368Z,12360
2018-05-25T12:02:07.371Z,12820
2018-05-25T12:03:07.626Z,13236
2018-05-25T12:04:07.637Z,13860
2018-05-25T12:05:07.629Z,14156
2018-05-25T12:06:07.636Z,13496
2018-05-25T12:07:07.636Z,12944
2018-05-25T12:08:07.396Z,12764
2018-05-25T12:09:07.633Z,13440
2018-05-25T12:10:07.383Z,13872
2018-05-25T12:11:07.379Z,13976
2018-05-25T12:12:07.384Z,14392
2018-05-25T12:13:07.644Z,14828
2018-05-25T12:14:07.385Z,14692
2018-05-25T12:15:07.899Z,14136
2018-05-25T12:16:07.902Z,13848
2018-05-25T12:17:07.653Z,13672
2018-05-25T12:18:07.388Z,13472
2018-05-25T12:19:07.909Z,13236
2018-05-25T12:20:07.656Z,12928
2018-05-25T12:21:08.396Z,13216
2018-05-25T12:22:07.661Z,13544
2018-05-25T12:23:07.653Z,12920
2018-05-25T12:24:07.694Z,11736
2018-05-25T12:25:07.928Z,10536
2018-05-25T12:26:07.405Z,9448
2018-05-25T12:27:07.928Z,8532
2018-05-25T12:28:08.116Z,7700
2018-05-25T12:29:07.403Z,7160
2018-05-25T12:30:08.154Z,6920
2018-05-25T12:31:07.413Z,6916
2018-05-25T12:32:07.151Z,7016
2018-05-25T12:33:07.434Z,7240
2018-05-25T12:34:07.727Z,7428
2018-05-25T12:35:07.679Z,7952
2018-05-25T12:36:07.420Z,8764
2018-05-25T12:37:07.421Z,9200
2018-05-25T12:38:07.694Z,9476
2018-05-25T12:39:07.930Z,9740
2018-05-25T12:40:07.694Z,9976
2018-05-25T12:41:07.432Z,10212
2018-05-25T12:42:07.937Z,10532
2018-05-25T12:43:07.425Z,10776
2018-05-25T12:44:07.947Z,10836
2018-05-25T12:45:07.685Z,10856
2018-05-25T12:46:07.685Z,10744
2018-05-25T12:47:07.689Z,10552
2018-05-25T12:48:07.686Z,10416
2018-05-25T12:49:07.174Z,10432
2018-05-25T12:50:08.112Z,10632
2018-05-25T12:51:08.188Z,11088
2018-05-25T12:52:07.695Z,11824
2018-05-25T12:53:07.714Z,12716
2018-05-25T12:54:08.046Z,13456
2018-05-25T12:55:07.433Z,13908
2018-05-25T12:56:07.431Z,14188
2018-05-25T12:57:07.693Z,14376
2018-05-25T12:58:07.796Z,14456
2018-05-25T12:59:07.693Z,14508
2018-05-25T13:00:07.708Z,14544
2018-05-25T13:01:07.433Z,14164
2018-05-25T13:02:07.702Z,13320
2018-05-25T13:03:07.693Z,12552
2018-05-25T13:04:07.979Z,11948
2018-05-25T13:05:07.972Z,11500
2018-05-25T13:06:07.709Z,11404
2018-05-25T13:07:07.187Z,11360
2018-05-25T13:08:07.698Z,11596
2018-05-25T13:09:07.715Z,12300
2018-05-25T13:10:07.189Z,13000
2018-05-25T13:11:07.446Z,13592
2018-05-25T13:12:07.464Z,14160
2018-05-25T13:13:07.708Z,14740
2018-05-25T13:14:07.966Z,14512
2018-05-25T13:15:07.741Z,13944
2018-05-25T13:16:07.977Z,13260
2018-05-25T13:17:07.989Z,12408
2018-05-25T13:18:07.974Z,12068
2018-05-25T13:19:07.472Z,11612
2018-05-25T13:20:07.719Z,11240
2018-05-25T13:21:07.499Z,11120
2018-05-25T13:22:07.711Z,11680
2018-05-25T13:23:07.987Z,12252
2018-05-25T13:24:07.720Z,12556
2018-05-25T13:25:07.461Z,12776
2018-05-25T13:26:07.721Z,13032
2018-05-25T13:27:07.976Z,12736
2018-05-25T13:28:07.723Z,12016
2018-05-25T13:29:07.981Z,11072
2018-05-25T13:30:07.729Z,10212
2018-05-25T13:31:07.789Z,9588
2018-05-25T13:32:07.724Z,9140
2018-05-25T13:33:07.725Z,8892